sensor_id;sensor_type;location;lat;lon;timestamp;pressure;altitude;pressure_sealevel;temperature;humidity
7836;BME280;3963;42.658;23.298;2023-03-04T00:00:07;58893.88;;;5.39;100.00
7836;BME280;3963;42.658;23.298;2023-03-04T00:02:34;58884.31;;;5.30;100.00
7836;BME280;3963;42.658;23.298;2023-03-04T00:05:01;58867.22;;;5.26;100.00
7836;BME280;3963;42.658;23.298;2023-03-04T00:07:29;58900.59;;;5.40;100.00
7836;BME280;3963;42.658;23.298;2023-03-04T00:09:55;58902.03;;;5.51;100.00
7836;BME280;3963;42.658;23.298;2023-03-04T00:12:22;58895.03;;;5.57;100.00
7836;BME280;3963;42.658;23.298;2023-03-04T00:14:51;58920.34;;;5.62;100.00
7836;BME280;3963;42.658;23.298;2023-03-04T00:17:17;58929.22;;;5.65;100.00
7836;BME280;3963;42.658;23.298;2023-03-04T00:19:44;58916.72;;;5.46;100.00
7836;BME280;3963;42.658;23.298;2023-03-04T00:22:11;58875.09;;;5.31;100.00
7836;BME280;3963;42.658;23.298;2023-03-04T00:24:38;58888.56;;;5.34;100.00
7836;BME280;3963;42.658;23.298;2023-03-04T00:27:04;58879.44;;;5.37;100.00
7836;BME280;3963;42.658;23.298;2023-03-04T00:29:31;58860.66;;;5.29;100.00
7836;BME280;3963;42.658;23.298;2023-03-04T00:31:59;58855.91;;;5.25;100.00
7836;BME280;3963;42.658;23.298;2023-03-04T00:34:26;58839.88;;;5.22;100.00
7836;BME280;3963;42.658;23.298;2023-03-04T00:36:52;58872.63;;;5.19;100.00
7836;BME280;3963;42.658;23.298;2023-03-04T00:39:25;58853.50;;;5.15;100.00
7836;BME280;3963;42.658;23.298;2023-03-04T00:41:52;58883.59;;;5.24;100.00
7836;BME280;3963;42.658;23.298;2023-03-04T00:44:19;58898.63;;;5.29;100.00
7836;BME280;3963;42.658;23.298;2023-03-04T00:46:45;58844.66;;;5.26;100.00
7836;BME280;3963;42.658;23.298;2023-03-04T00:49:14;58867.47;;;5.19;100.00
7836;BME280;3963;42.658;23.298;2023-03-04T00:51:40;58853.75;;;5.08;100.00
7836;BME280;3963;42.658;23.298;2023-03-04T00:54:07;58877.03;;;5.13;100.00
7836;BME280;3963;42.658;23.298;2023-03-04T00:56:34;58857.75;;;5.19;100.00
7836;BME280;3963;42.658;23.298;2023-03-04T00:59:01;58909.09;;;5.34;100.00
7836;BME280;3963;42.658;23.298;2023-03-04T01:01:28;58881.03;;;5.39;100.00
7836;BME280;3963;42.658;23.298;2023-03-04T01:03:54;58868.56;;;5.34;100.00
7836;BME280;3963;42.658;23.298;2023-03-04T01:06:22;58868.44;;;5.32;100.00
7836;BME280;3963;42.658;23.298;2023-03-04T01:08:49;58871.66;;;5.35;100.00
7836;BME280;3963;42.658;23.298;2023-03-04T01:11:16;58860.31;;;5.34;100.00
7836;BME280;3963;42.658;23.298;2023-03-04T01:13:43;58858.28;;;5.20;100.00
7836;BME280;3963;42.658;23.298;2023-03-04T01:16:09;58876.16;;;5.32;100.00
7836;BME280;3963;42.658;23.298;2023-03-04T01:18:37;58857.47;;;5.26;100.00
7836;BME280;3963;42.658;23.298;2023-03-04T01:21:05;58869.28;;;5.40;100.00
7836;BME280;3963;42.658;23.298;2023-03-04T01:23:33;58847.84;;;5.44;100.00
7836;BME280;3963;42.658;23.298;2023-03-04T01:25:59;58891.47;;;5.44;100.00
7836;BME280;3963;42.658;23.298;2023-03-04T01:28:26;58871.84;;;5.54;100.00
7836;BME280;3963;42.658;23.298;2023-03-04T01:30:53;58851.22;;;5.37;100.00
7836;BME280;3963;42.658;23.298;2023-03-04T01:33:20;58850.31;;;5.27;100.00
7836;BME280;3963;42.658;23.298;2023-03-04T01:35:46;58846.59;;;5.09;100.00
7836;BME280;3963;42.658;23.298;2023-03-04T01:38:13;58837.13;;;5.02;100.00
7836;BME280;3963;42.658;23.298;2023-03-04T01:40:41;58823.94;;;5.07;100.00
7836;BME280;3963;42.658;23.298;2023-03-04T01:43:22;58803.78;;;5.02;100.00
7836;BME280;3963;42.658;23.298;2023-03-04T01:45:51;58853.47;;;5.00;100.00
7836;BME280;3963;42.658;23.298;2023-03-04T01:48:21;58857.81;;;4.92;100.00
7836;BME280;3963;42.658;23.298;2023-03-04T01:50:49;58849.06;;;5.06;100.00
7836;BME280;3963;42.658;23.298;2023-03-04T01:53:19;58829.97;;;5.17;100.00
7836;BME280;3963;42.658;23.298;2023-03-04T01:55:51;58818.72;;;5.19;100.00
7836;BME280;3963;42.658;23.298;2023-03-04T01:58:18;58848.00;;;5.20;100.00
7836;BME280;3963;42.658;23.298;2023-03-04T02:00:45;58835.63;;;5.18;100.00
7836;BME280;3963;42.658;23.298;2023-03-04T02:03:14;58874.09;;;5.18;100.00
7836;BME280;3963;42.658;23.298;2023-03-04T02:05:43;58852.63;;;5.19;100.00
7836;BME280;3963;42.658;23.298;2023-03-04T02:08:11;58837.94;;;5.25;100.00
7836;BME280;3963;42.658;23.298;2023-03-04T02:10:41;58844.47;;;5.21;100.00
7836;BME280;3963;42.658;23.298;2023-03-04T02:13:10;58857.91;;;5.10;100.00
7836;BME280;3963;42.658;23.298;2023-03-04T02:15:37;58837.41;;;5.10;100.00
7836;BME280;3963;42.658;23.298;2023-03-04T02:18:13;58882.88;;;5.19;100.00
7836;BME280;3963;42.658;23.298;2023-03-04T02:20:44;58830.03;;;5.05;100.00
7836;BME280;3963;42.658;23.298;2023-03-04T02:23:18;58855.53;;;5.15;100.00
7836;BME280;3963;42.658;23.298;2023-03-04T02:26:03;58858.00;;;5.27;100.00
7836;BME280;3963;42.658;23.298;2023-03-04T02:28:32;58874.03;;;5.30;100.00
7836;BME280;3963;42.658;23.298;2023-03-04T02:30:59;58835.78;;;5.23;100.00
7836;BME280;3963;42.658;23.298;2023-03-04T02:33:26;58856.44;;;5.25;100.00
7836;BME280;3963;42.658;23.298;2023-03-04T02:35:53;58829.25;;;5.26;100.00
7836;BME280;3963;42.658;23.298;2023-03-04T02:38:19;58857.56;;;5.29;100.00
7836;BME280;3963;42.658;23.298;2023-03-04T02:40:48;58857.13;;;5.31;100.00
7836;BME280;3963;42.658;23.298;2023-03-04T02:43:18;58851.38;;;5.28;100.00
7836;BME280;3963;42.658;23.298;2023-03-04T02:45:46;58868.13;;;5.36;100.00
7836;BME280;3963;42.658;23.298;2023-03-04T02:48:16;58848.00;;;5.20;100.00
7836;BME280;3963;42.658;23.298;2023-03-04T02:50:46;58874.03;;;5.30;100.00
7836;BME280;3963;42.658;23.298;2023-03-04T02:53:13;58855.19;;;5.19;100.00
7836;BME280;3963;42.658;23.298;2023-03-04T02:55:40;58821.13;;;5.14;100.00
7836;BME280;3963;42.658;23.298;2023-03-04T02:58:08;58841.47;;;5.09;100.00
7836;BME280;3963;42.658;23.298;2023-03-04T03:00:36;58806.78;;;5.15;100.00
7836;BME280;3963;42.658;23.298;2023-03-04T03:03:03;58844.03;;;5.09;100.00
7836;BME280;3963;42.658;23.298;2023-03-04T03:05:31;58808.19;;;4.96;100.00
7836;BME280;3963;42.658;23.298;2023-03-04T03:07:59;58795.66;;;4.89;100.00
7836;BME280;3963;42.658;23.298;2023-03-04T03:10:26;58732.16;;;4.78;100.00
7836;BME280;3963;42.658;23.298;2023-03-04T03:12:52;58796.97;;;4.83;100.00
7836;BME280;3963;42.658;23.298;2023-03-04T03:15:20;58793.56;;;4.61;100.00
7836;BME280;3963;42.658;23.298;2023-03-04T03:17:48;58794.47;;;4.71;100.00
7836;BME280;3963;42.658;23.298;2023-03-04T03:20:16;58799.06;;;4.71;100.00
7836;BME280;3963;42.658;23.298;2023-03-04T03:22:43;58789.06;;;4.78;100.00
7836;BME280;3963;42.658;23.298;2023-03-04T03:25:11;58819.94;;;4.81;100.00
7836;BME280;3963;42.658;23.298;2023-03-04T03:27:38;58776.53;;;4.71;100.00
7836;BME280;3963;42.658;23.298;2023-03-04T03:30:07;58786.09;;;4.66;100.00
7836;BME280;3963;42.658;23.298;2023-03-04T03:32:34;58797.22;;;4.62;100.00
7836;BME280;3963;42.658;23.298;2023-03-04T03:35:03;58794.91;;;4.69;100.00
7836;BME280;3963;42.658;23.298;2023-03-04T03:37:30;58791.91;;;4.71;100.00
7836;BME280;3963;42.658;23.298;2023-03-04T03:39:56;58720.31;;;4.47;100.00
7836;BME280;3963;42.658;23.298;2023-03-04T03:42:23;58771.91;;;4.57;100.00
7836;BME280;3963;42.658;23.298;2023-03-04T03:44:50;58788.00;;;4.48;100.00
7836;BME280;3963;42.658;23.298;2023-03-04T03:47:17;58743.19;;;4.42;100.00
7836;BME280;3963;42.658;23.298;2023-03-04T03:49:43;58779.59;;;4.42;100.00
7836;BME280;3963;42.658;23.298;2023-03-04T03:52:11;58723.41;;;4.33;100.00
7836;BME280;3963;42.658;23.298;2023-03-04T03:54:38;58765.00;;;4.36;100.00
7836;BME280;3963;42.658;23.298;2023-03-04T03:57:05;58779.59;;;4.42;100.00
7836;BME280;3963;42.658;23.298;2023-03-04T03:59:31;58760.06;;;4.26;100.00
7836;BME280;3963;42.658;23.298;2023-03-04T04:01:58;58728.34;;;4.28;100.00
7836;BME280;3963;42.658;23.298;2023-03-04T04:04:25;58749.34;;;4.28;100.00
7836;BME280;3963;42.658;23.298;2023-03-04T04:06:52;58731.59;;;4.33;100.00
7836;BME280;3963;42.658;23.298;2023-03-04T04:09:20;58739.53;;;4.12;100.00
7836;BME280;3963;42.658;23.298;2023-03-04T04:11:47;58677.34;;;4.06;100.00
7836;BME280;3963;42.658;23.298;2023-03-04T04:14:13;58730.19;;;4.22;100.00
7836;BME280;3963;42.658;23.298;2023-03-04T04:16:40;58736.00;;;4.13;100.00
7836;BME280;3963;42.658;23.298;2023-03-04T04:19:09;58703.41;;;4.19;100.00
7836;BME280;3963;42.658;23.298;2023-03-04T04:21:39;58713.31;;;4.09;100.00
7836;BME280;3963;42.658;23.298;2023-03-04T04:24:06;58696.50;;;3.98;100.00
7836;BME280;3963;42.658;23.298;2023-03-04T04:26:34;58651.81;;;3.79;100.00
7836;BME280;3963;42.658;23.298;2023-03-04T04:29:01;58673.63;;;3.73;100.00
7836;BME280;3963;42.658;23.298;2023-03-04T04:31:27;58675.66;;;3.73;100.00
7836;BME280;3963;42.658;23.298;2023-03-04T04:33:54;58684.84;;;3.72;100.00
7836;BME280;3963;42.658;23.298;2023-03-04T04:36:21;58645.75;;;3.66;100.00
7836;BME280;3963;42.658;23.298;2023-03-04T04:38:48;58663.38;;;3.59;100.00
7836;BME280;3963;42.658;23.298;2023-03-04T04:41:19;58649.63;;;3.60;100.00
7836;BME280;3963;42.658;23.298;2023-03-04T04:43:48;58633.19;;;3.59;100.00
7836;BME280;3963;42.658;23.298;2023-03-04T04:46:15;58636.53;;;3.53;100.00
7836;BME280;3963;42.658;23.298;2023-03-04T04:48:43;58621.38;;;3.43;100.00
7836;BME280;3963;42.658;23.298;2023-03-04T04:51:10;58639.38;;;3.46;100.00
7836;BME280;3963;42.658;23.298;2023-03-04T04:53:37;58609.47;;;3.39;100.00
7836;BME280;3963;42.658;23.298;2023-03-04T04:56:09;58628.53;;;3.43;100.00
7836;BME280;3963;42.658;23.298;2023-03-04T04:58:36;58662.72;;;3.41;100.00
7836;BME280;3963;42.658;23.298;2023-03-04T05:01:05;58612.47;;;3.37;100.00
7836;BME280;3963;42.658;23.298;2023-03-04T05:03:33;58563.66;;;3.32;100.00
7836;BME280;3963;42.658;23.298;2023-03-04T05:06:00;58611.03;;;3.26;100.00
7836;BME280;3963;42.658;23.298;2023-03-04T05:08:26;58604.06;;;3.17;100.00
7836;BME280;3963;42.658;23.298;2023-03-04T05:10:53;58585.34;;;3.09;100.00
7836;BME280;3963;42.658;23.298;2023-03-04T05:13:20;58580.41;;;3.14;100.00
7836;BME280;3963;42.658;23.298;2023-03-04T05:15:49;58552.75;;;3.12;100.00
7836;BME280;3963;42.658;23.298;2023-03-04T05:18:18;58598.16;;;3.23;100.00
7836;BME280;3963;42.658;23.298;2023-03-04T05:20:49;58597.19;;;3.25;100.00
7836;BME280;3963;42.658;23.298;2023-03-04T05:23:15;58594.19;;;3.27;100.00
7836;BME280;3963;42.658;23.298;2023-03-04T05:25:42;58600.44;;;3.16;100.00
7836;BME280;3963;42.658;23.298;2023-03-04T05:28:09;58554.84;;;3.14;100.00
7836;BME280;3963;42.658;23.298;2023-03-04T05:30:36;58624.88;;;3.27;100.00
7836;BME280;3963;42.658;23.298;2023-03-04T05:33:03;58617.81;;;3.30;100.00
7836;BME280;3963;42.658;23.298;2023-03-04T05:35:32;58629.22;;;3.33;100.00
7836;BME280;3963;42.658;23.298;2023-03-04T05:37:58;58596.50;;;3.34;100.00
7836;BME280;3963;42.658;23.298;2023-03-04T05:40:25;58578.16;;;3.36;100.00
7836;BME280;3963;42.658;23.298;2023-03-04T05:42:52;58640.94;;;3.47;100.00
7836;BME280;3963;42.658;23.298;2023-03-04T05:45:19;58637.06;;;3.53;100.00
7836;BME280;3963;42.658;23.298;2023-03-04T05:47:45;58649.78;;;3.65;100.00
7836;BME280;3963;42.658;23.298;2023-03-04T05:50:12;58646.38;;;3.69;100.00
7836;BME280;3963;42.658;23.298;2023-03-04T05:52:41;58631.88;;;3.65;100.00
7836;BME280;3963;42.658;23.298;2023-03-04T05:55:08;58688.66;;;3.78;100.00
7836;BME280;3963;42.658;23.298;2023-03-04T05:57:34;58694.06;;;4.00;100.00
7836;BME280;3963;42.658;23.298;2023-03-04T06:00:02;58693.78;;;3.92;100.00
7836;BME280;3963;42.658;23.298;2023-03-04T06:02:31;58724.25;;;4.00;100.00
7836;BME280;3963;42.658;23.298;2023-03-04T06:04:58;58718.88;;;4.07;100.00
7836;BME280;3963;42.658;23.298;2023-03-04T06:07:25;58734.59;;;4.17;100.00
7836;BME280;3963;42.658;23.298;2023-03-04T06:09:53;58680.63;;;4.26;100.00
7836;BME280;3963;42.658;23.298;2023-03-04T06:12:20;58733.91;;;4.40;100.00
7836;BME280;3963;42.658;23.298;2023-03-04T06:14:47;58710.41;;;4.28;100.00
7836;BME280;3963;42.658;23.298;2023-03-04T06:17:13;58755.72;;;4.34;100.00
7836;BME280;3963;42.658;23.298;2023-03-04T06:19:41;58738.25;;;4.47;100.00
7836;BME280;3963;42.658;23.298;2023-03-04T06:22:08;58764.13;;;4.55;100.00
7836;BME280;3963;42.658;23.298;2023-03-04T06:24:35;58763.63;;;4.69;100.00
7836;BME280;3963;42.658;23.298;2023-03-04T06:27:03;58788.38;;;4.73;100.00
7836;BME280;3963;42.658;23.298;2023-03-04T06:29:30;58841.81;;;4.89;100.00
7836;BME280;3963;42.658;23.298;2023-03-04T06:31:57;58823.84;;;4.89;100.00
7836;BME280;3963;42.658;23.298;2023-03-04T06:34:24;58837.22;;;5.05;100.00
7836;BME280;3963;42.658;23.298;2023-03-04T06:36:52;58816.25;;;5.07;100.00
7836;BME280;3963;42.658;23.298;2023-03-04T06:39:19;58822.34;;;5.20;100.00
7836;BME280;3963;42.658;23.298;2023-03-04T06:41:46;58865.19;;;5.41;100.00
7836;BME280;3963;42.658;23.298;2023-03-04T06:44:14;58853.78;;;5.52;100.00
7836;BME280;3963;42.658;23.298;2023-03-04T06:46:41;58862.72;;;5.58;100.00
7836;BME280;3963;42.658;23.298;2023-03-04T06:49:09;58894.06;;;5.58;100.00
7836;BME280;3963;42.658;23.298;2023-03-04T06:51:36;58870.44;;;5.73;100.00
7836;BME280;3963;42.658;23.298;2023-03-04T06:54:03;58890.59;;;5.63;100.00
7836;BME280;3963;42.658;23.298;2023-03-04T06:56:30;58911.25;;;5.80;100.00
7836;BME280;3963;42.658;23.298;2023-03-04T06:58:57;58921.09;;;5.82;100.00
7836;BME280;3963;42.658;23.298;2023-03-04T07:01:27;58879.63;;;5.57;100.00
7836;BME280;3963;42.658;23.298;2023-03-04T07:03:55;58875.19;;;5.63;100.00
7836;BME280;3963;42.658;23.298;2023-03-04T07:06:23;58884.06;;;5.66;100.00
7836;BME280;3963;42.658;23.298;2023-03-04T07:08:51;58894.59;;;5.59;100.00
7836;BME280;3963;42.658;23.298;2023-03-04T07:11:19;58868.03;;;5.78;100.00
7836;BME280;3963;42.658;23.298;2023-03-04T07:13:46;58938.00;;;5.81;100.00
7836;BME280;3963;42.658;23.298;2023-03-04T07:16:15;58913.28;;;5.79;100.00
7836;BME280;3963;42.658;23.298;2023-03-04T07:18:45;58913.47;;;5.84;100.00
7836;BME280;3963;42.658;23.298;2023-03-04T07:21:12;58910.28;;;5.81;100.00
7836;BME280;3963;42.658;23.298;2023-03-04T07:23:40;58870.69;;;5.51;100.00
7836;BME280;3963;42.658;23.298;2023-03-04T07:26:07;58903.19;;;5.55;100.00
7836;BME280;3963;42.658;23.298;2023-03-04T07:28:34;58898.75;;;5.61;100.00
7836;BME280;3963;42.658;23.298;2023-03-04T07:31:10;58868.91;;;5.44;100.00
7836;BME280;3963;42.658;23.298;2023-03-04T07:33:37;58851.47;;;5.30;100.00
7836;BME280;3963;42.658;23.298;2023-03-04T07:36:05;58855.91;;;5.39;100.00
7836;BME280;3963;42.658;23.298;2023-03-04T07:38:32;58824.75;;;5.29;100.00
7836;BME280;3963;42.658;23.298;2023-03-04T07:40:58;58840.31;;;5.20;100.00
7836;BME280;3963;42.658;23.298;2023-03-04T07:43:25;58810.59;;;5.21;100.00
7836;BME280;3963;42.658;23.298;2023-03-04T07:45:57;58842.16;;;5.29;100.00
7836;BME280;3963;42.658;23.298;2023-03-04T07:48:24;58853.75;;;5.23;100.00
7836;BME280;3963;42.658;23.298;2023-03-04T07:51:02;58825.09;;;5.25;100.00
7836;BME280;3963;42.658;23.298;2023-03-04T07:53:30;58869.69;;;5.38;100.00
7836;BME280;3963;42.658;23.298;2023-03-04T07:55:57;58893.69;;;5.48;100.00
7836;BME280;3963;42.658;23.298;2023-03-04T07:58:24;58890.69;;;5.65;100.00
7836;BME280;3963;42.658;23.298;2023-03-04T08:00:51;58906.28;;;5.70;100.00
7836;BME280;3963;42.658;23.298;2023-03-04T08:03:18;58885.22;;;5.70;100.00
7836;BME280;3963;42.658;23.298;2023-03-04T08:05:45;58940.66;;;5.83;100.00
7836;BME280;3963;42.658;23.298;2023-03-04T08:08:12;58913.56;;;6.01;100.00
7836;BME280;3963;42.658;23.298;2023-03-04T08:10:40;58948.13;;;6.20;100.00
7836;BME280;3963;42.658;23.298;2023-03-04T08:13:07;58969.69;;;6.18;100.00
7836;BME280;3963;42.658;23.298;2023-03-04T08:15:33;58985.97;;;6.29;100.00
7836;BME280;3963;42.658;23.298;2023-03-04T08:18:04;58980.59;;;6.36;100.00
7836;BME280;3963;42.658;23.298;2023-03-04T08:20:31;58965.88;;;6.27;100.00
7836;BME280;3963;42.658;23.298;2023-03-04T08:22:58;58981.91;;;6.44;100.00
7836;BME280;3963;42.658;23.298;2023-03-04T08:25:25;59002.94;;;6.57;100.00
7836;BME280;3963;42.658;23.298;2023-03-04T08:27:53;58995.94;;;6.48;100.00
7836;BME280;3963;42.658;23.298;2023-03-04T08:30:20;59024.75;;;6.63;100.00
7836;BME280;3963;42.658;23.298;2023-03-04T08:32:46;59011.59;;;6.41;100.00
7836;BME280;3963;42.658;23.298;2023-03-04T08:35:13;58989.34;;;6.37;100.00
7836;BME280;3963;42.658;23.298;2023-03-04T08:37:40;59002.31;;;6.54;100.00
7836;BME280;3963;42.658;23.298;2023-03-04T08:40:08;59085.34;;;7.03;100.00
7836;BME280;3963;42.658;23.298;2023-03-04T08:42:35;59081.09;;;7.29;100.00
7836;BME280;3963;42.658;23.298;2023-03-04T08:45:05;59109.78;;;7.39;100.00
7836;BME280;3963;42.658;23.298;2023-03-04T08:47:31;59091.75;;;7.39;100.00
7836;BME280;3963;42.658;23.298;2023-03-04T08:49:58;59151.88;;;7.64;100.00
7836;BME280;3963;42.658;23.298;2023-03-04T08:52:27;59208.13;;;7.95;100.00
7836;BME280;3963;42.658;23.298;2023-03-04T08:54:54;59140.25;;;7.70;100.00
7836;BME280;3963;42.658;23.298;2023-03-04T08:57:21;59123.19;;;7.54;100.00
7836;BME280;3963;42.658;23.298;2023-03-04T08:59:48;59126.28;;;7.69;100.00
7836;BME280;3963;42.658;23.298;2023-03-04T09:02:16;59159.00;;;7.75;100.00
7836;BME280;3963;42.658;23.298;2023-03-04T09:04:43;59124.41;;;7.60;100.00
7836;BME280;3963;42.658;23.298;2023-03-04T09:07:09;59181.28;;;7.65;100.00
7836;BME280;3963;42.658;23.298;2023-03-04T09:09:38;59122.84;;;7.58;100.00
7836;BME280;3963;42.658;23.298;2023-03-04T09:12:06;59132.94;;;7.68;100.00
7836;BME280;3963;42.658;23.298;2023-03-04T09:14:33;59156.56;;;7.51;100.00
7836;BME280;3963;42.658;23.298;2023-03-04T09:17:00;59147.59;;;7.60;100.00
7836;BME280;3963;42.658;23.298;2023-03-04T09:19:28;59142.47;;;7.60;100.00
7836;BME280;3963;42.658;23.298;2023-03-04T09:21:55;59117.41;;;7.65;100.00
7836;BME280;3963;42.658;23.298;2023-03-04T09:24:23;59107.28;;;7.41;100.00
7836;BME280;3963;42.658;23.298;2023-03-04T09:26:51;59142.09;;;7.64;100.00
7836;BME280;3963;42.658;23.298;2023-03-04T09:29:18;59174.97;;;7.76;100.00
7836;BME280;3963;42.658;23.298;2023-03-04T09:31:45;59159.53;;;7.61;100.00
7836;BME280;3963;42.658;23.298;2023-03-04T09:34:11;59172.41;;;7.91;100.00
7836;BME280;3963;42.658;23.298;2023-03-04T09:36:40;59216.50;;;8.27;100.00
7836;BME280;3963;42.658;23.298;2023-03-04T09:39:07;59235.16;;;8.16;100.00
7836;BME280;3963;42.658;23.298;2023-03-04T09:41:37;59209.19;;;8.25;100.00
7836;BME280;3963;42.658;23.298;2023-03-04T09:44:12;59310.09;;;8.62;100.00
7836;BME280;3963;42.658;23.298;2023-03-04T09:46:42;59282.50;;;8.70;100.00
7836;BME280;3963;42.658;23.298;2023-03-04T09:49:10;59246.94;;;8.56;100.00
7836;BME280;3963;42.658;23.298;2023-03-04T09:51:54;59254.22;;;8.44;100.00
7836;BME280;3963;42.658;23.298;2023-03-04T09:54:55;59299.16;;;8.59;100.00
7836;BME280;3963;42.658;23.298;2023-03-04T09:57:29;59328.53;;;9.02;100.00
7836;BME280;3963;42.658;23.298;2023-03-04T10:00:14;59354.63;;;9.09;100.00
7836;BME280;3963;42.658;23.298;2023-03-04T10:02:55;59287.69;;;8.70;100.00
7836;BME280;3963;42.658;23.298;2023-03-04T10:05:31;59259.84;;;8.42;100.00
7836;BME280;3963;42.658;23.298;2023-03-04T10:08:11;59224.25;;;8.42;100.00
7836;BME280;3963;42.658;23.298;2023-03-04T10:10:43;59303.78;;;8.73;100.00
7836;BME280;3963;42.658;23.298;2023-03-04T10:13:15;59388.50;;;9.31;100.00
7836;BME280;3963;42.658;23.298;2023-03-04T10:15:46;59382.59;;;9.26;100.00
7836;BME280;3963;42.658;23.298;2023-03-04T10:18:19;59395.78;;;9.33;100.00
7836;BME280;3963;42.658;23.298;2023-03-04T10:20:52;59364.63;;;9.28;100.00
7836;BME280;3963;42.658;23.298;2023-03-04T10:23:23;59377.53;;;9.28;100.00
7836;BME280;3963;42.658;23.298;2023-03-04T10:25:51;59412.09;;;9.41;100.00
7836;BME280;3963;42.658;23.298;2023-03-04T10:28:22;59322.75;;;8.99;100.00
7836;BME280;3963;42.658;23.298;2023-03-04T10:30:54;59362.13;;;9.16;100.00
7836;BME280;3963;42.658;23.298;2023-03-04T10:33:25;59333.16;;;9.01;100.00
7836;BME280;3963;42.658;23.298;2023-03-04T10:35:59;59361.84;;;9.09;100.00
7836;BME280;3963;42.658;23.298;2023-03-04T10:38:30;59359.16;;;9.21;100.00
7836;BME280;3963;42.658;23.298;2023-03-04T10:40:58;59316.78;;;8.90;100.00
7836;BME280;3963;42.658;23.298;2023-03-04T10:43:25;59328.81;;;8.80;100.00
7836;BME280;3963;42.658;23.298;2023-03-04T10:45:54;59299.63;;;8.72;100.00
7836;BME280;3963;42.658;23.298;2023-03-04T10:48:24;59321.94;;;8.76;100.00
7836;BME280;3963;42.658;23.298;2023-03-04T10:50:50;59293.56;;;8.76;100.00
7836;BME280;3963;42.658;23.298;2023-03-04T10:53:24;59287.50;;;8.51;100.00
7836;BME280;3963;42.658;23.298;2023-03-04T10:55:55;59278.59;;;8.62;100.00
7836;BME280;3963;42.658;23.298;2023-03-04T10:58:22;59294.72;;;8.65;100.00
7836;BME280;3963;42.658;23.298;2023-03-04T11:00:59;59267.28;;;8.49;100.00
7836;BME280;3963;42.658;23.298;2023-03-04T11:03:32;59263.56;;;8.45;100.00
7836;BME280;3963;42.658;23.298;2023-03-04T11:06:05;59270.31;;;8.47;100.00
7836;BME280;3963;42.658;23.298;2023-03-04T11:08:32;59272.09;;;8.53;100.00
7836;BME280;3963;42.658;23.298;2023-03-04T11:11:00;59288.38;;;8.47;100.00
7836;BME280;3963;42.658;23.298;2023-03-04T11:13:30;59279.41;;;8.41;100.00
7836;BME280;3963;42.658;23.298;2023-03-04T11:16:00;59261.50;;;8.46;100.00
7836;BME280;3963;42.658;23.298;2023-03-04T11:18:32;59248.25;;;8.06;100.00
7836;BME280;3963;42.658;23.298;2023-03-04T11:21:01;59175.06;;;7.93;100.00
7836;BME280;3963;42.658;23.298;2023-03-04T11:23:35;59184.56;;;7.70;100.00
7836;BME280;3963;42.658;23.298;2023-03-04T11:26:10;59168.94;;;7.65;100.00
7836;BME280;3963;42.658;23.298;2023-03-04T11:28:41;59217.38;;;7.94;100.00
7836;BME280;3963;42.658;23.298;2023-03-04T11:31:13;59168.59;;;7.70;100.00
7836;BME280;3963;42.658;23.298;2023-03-04T11:33:44;59196.03;;;7.74;100.00
7836;BME280;3963;42.658;23.298;2023-03-04T11:36:22;59153.91;;;7.78;100.00
7836;BME280;3963;42.658;23.298;2023-03-04T11:38:53;59168.59;;;7.85;100.00
7836;BME280;3963;42.658;23.298;2023-03-04T11:41:27;59230.53;;;8.16;100.00
7836;BME280;3963;42.658;23.298;2023-03-04T11:43:57;59197.19;;;8.21;100.00
7836;BME280;3963;42.658;23.298;2023-03-04T11:46:34;59202.72;;;8.17;100.00
7836;BME280;3963;42.658;23.298;2023-03-04T11:52:07;59202.72;;;8.02;100.00
7836;BME280;3963;42.658;23.298;2023-03-04T11:54:43;59206.63;;;7.96;100.00
7836;BME280;3963;42.658;23.298;2023-03-04T11:57:22;59133.47;;;7.83;100.00
7836;BME280;3963;42.658;23.298;2023-03-04T12:00:04;59178.34;;;7.99;100.00
7836;BME280;3963;42.658;23.298;2023-03-04T12:02:41;59253.13;;;8.13;100.00
7836;BME280;3963;42.658;23.298;2023-03-04T12:05:26;59191.31;;;8.01;100.00
7836;BME280;3963;42.658;23.298;2023-03-04T12:11:01;59202.53;;;7.97;100.00
7836;BME280;3963;42.658;23.298;2023-03-04T12:16:58;59246.84;;;8.39;100.00
7836;BME280;3963;42.658;23.298;2023-03-04T12:19:41;59273.81;;;8.72;100.00
7836;BME280;3963;42.658;23.298;2023-03-04T12:22:23;59323.09;;;8.79;100.00
7836;BME280;3963;42.658;23.298;2023-03-04T12:25:15;59317.78;;;8.89;100.00
7836;BME280;3963;42.658;23.298;2023-03-04T12:27:47;59332.72;;;9.03;100.00
7836;BME280;3963;42.658;23.298;2023-03-04T12:30:33;59318.81;;;8.90;100.00
7836;BME280;3963;42.658;23.298;2023-03-04T12:33:05;59302.91;;;8.92;100.00
7836;BME280;3963;42.658;23.298;2023-03-04T12:35:38;59356.59;;;9.21;100.00
7836;BME280;3963;42.658;23.298;2023-03-04T12:38:27;59368.63;;;9.25;100.00
7836;BME280;3963;42.658;23.298;2023-03-04T12:41:01;59373.34;;;9.41;100.00
7836;BME280;3963;42.658;23.298;2023-03-04T12:43:46;59362.91;;;9.24;100.00
7836;BME280;3963;42.658;23.298;2023-03-04T12:46:26;59413.34;;;9.48;100.00
7836;BME280;3963;42.658;23.298;2023-03-04T12:49:28;59356.03;;;9.35;100.00
7836;BME280;3963;42.658;23.298;2023-03-04T12:52:03;59404.63;;;9.49;100.00
7836;BME280;3963;42.658;23.298;2023-03-04T12:54:36;59413.00;;;9.52;100.00
7836;BME280;3963;42.658;23.298;2023-03-04T12:57:09;59400.88;;;9.60;100.00
7836;BME280;3963;42.658;23.298;2023-03-04T12:59:43;59410.50;;;9.84;100.00
7836;BME280;3963;42.658;23.298;2023-03-04T13:02:41;59468.53;;;9.87;100.00
7836;BME280;3963;42.658;23.298;2023-03-04T13:05:23;59407.09;;;9.76;100.00
7836;BME280;3963;42.658;23.298;2023-03-04T13:08:01;59425.13;;;9.88;100.00
7836;BME280;3963;42.658;23.298;2023-03-04T13:10:29;59398.53;;;9.68;100.00
7836;BME280;3963;42.658;23.298;2023-03-04T13:12:57;59362.28;;;9.51;100.00
7836;BME280;3963;42.658;23.298;2023-03-04T13:15:32;59385.19;;;9.55;100.00
7836;BME280;3963;42.658;23.298;2023-03-04T13:18:03;59387.78;;;9.55;100.00
7836;BME280;3963;42.658;23.298;2023-03-04T13:21:05;59432.59;;;9.66;100.00
7836;BME280;3963;42.658;23.298;2023-03-04T13:23:32;59401.94;;;9.61;100.00
7836;BME280;3963;42.658;23.298;2023-03-04T13:26:15;59424.94;;;9.54;100.00
7836;BME280;3963;42.658;23.298;2023-03-04T13:28:44;59385.38;;;9.31;100.00
7836;BME280;3963;42.658;23.298;2023-03-04T13:31:13;59421.25;;;9.38;100.00